sensor_id;sensor_type;location;lat;lon;timestamp;pressure;altitude;pressure_sealevel;temperature;humidity
59170;BME280;52474;52.236;5.114;2023-07-02T00:00:17;100699.22;;;14.84;100.00
59170;BME280;52474;52.236;5.114;2023-07-02T00:02:48;100697.66;;;14.65;100.00
59170;BME280;52474;52.236;5.114;2023-07-02T00:05:20;100729.66;;;14.73;100.00
59170;BME280;52474;52.236;5.114;2023-07-02T00:07:54;100687.31;;;14.36;100.00
59170;BME280;52474;52.236;5.114;2023-07-02T00:10:26;100689.59;;;14.23;100.00
59170;BME280;52474;52.236;5.114;2023-07-02T00:12:58;100686.56;;;14.17;100.00
59170;BME280;52474;52.236;5.114;2023-07-02T00:15:31;100721.25;;;14.26;100.00
59170;BME280;52474;52.236;5.114;2023-07-02T00:18:04;100695.41;;;14.18;100.00
59170;BME280;52474;52.236;5.114;2023-07-02T00:20:36;100701.91;;;14.24;100.00
59170;BME280;52474;52.236;5.114;2023-07-02T00:23:11;100709.78;;;14.33;100.00
59170;BME280;52474;52.236;5.114;2023-07-02T00:25:42;100681.66;;;14.05;100.00
59170;BME280;52474;52.236;5.114;2023-07-02T00:28:13;100715.25;;;14.24;100.00
59170;BME280;52474;52.236;5.114;2023-07-02T00:30:44;100692.31;;;14.05;100.00
59170;BME280;52474;52.236;5.114;2023-07-02T00:33:16;100687.31;;;14.02;100.00
59170;BME280;52474;52.236;5.114;2023-07-02T00:35:47;100728.31;;;14.09;100.00
59170;BME280;52474;52.236;5.114;2023-07-02T00:38:19;100717.16;;;13.87;100.00
59170;BME280;52474;52.236;5.114;2023-07-02T00:40:50;100709.53;;;13.66;100.00
59170;BME280;52474;52.236;5.114;2023-07-02T00:43:22;100732.91;;;13.81;100.00
59170;BME280;52474;52.236;5.114;2023-07-02T00:45:55;100707.56;;;13.50;100.00
59170;BME280;52474;52.236;5.114;2023-07-02T00:48:25;100688.75;;;13.44;100.00
59170;BME280;52474;52.236;5.114;2023-07-02T00:50:56;100713.34;;;13.46;100.00
59170;BME280;52474;52.236;5.114;2023-07-02T00:53:27;100746.69;;;13.58;100.00
59170;BME280;52474;52.236;5.114;2023-07-02T00:55:59;100733.47;;;13.48;100.00
59170;BME280;52474;52.236;5.114;2023-07-02T00:58:33;100714.66;;;13.14;100.00
59170;BME280;52474;52.236;5.114;2023-07-02T01:01:04;100736.69;;;13.34;100.00
59170;BME280;52474;52.236;5.114;2023-07-02T01:03:32;100725.81;;;13.27;100.00
59170;BME280;52474;52.236;5.114;2023-07-02T01:06:06;100724.56;;;13.22;100.00
59170;BME280;52474;52.236;5.114;2023-07-02T01:08:40;100707.00;;;13.11;100.00
59170;BME280;52474;52.236;5.114;2023-07-02T01:11:13;100690.97;;;12.85;100.00
59170;BME280;52474;52.236;5.114;2023-07-02T01:13:46;100737.56;;;13.07;100.00
59170;BME280;52474;52.236;5.114;2023-07-02T01:16:20;100716.09;;;12.91;100.00
59170;BME280;52474;52.236;5.114;2023-07-02T01:18:55;100713.56;;;12.89;100.00
59170;BME280;52474;52.236;5.114;2023-07-02T01:21:27;100755.16;;;13.08;100.00
59170;BME280;52474;52.236;5.114;2023-07-02T01:24:01;100751.75;;;13.16;100.00
59170;BME280;52474;52.236;5.114;2023-07-02T01:26:37;100718.06;;;12.88;100.00
59170;BME280;52474;52.236;5.114;2023-07-02T01:29:20;100728.69;;;12.88;100.00
59170;BME280;52474;52.236;5.114;2023-07-02T01:31:49;100738.63;;;12.86;100.00
59170;BME280;52474;52.236;5.114;2023-07-02T01:34:20;100764.41;;;13.04;100.00
59170;BME280;52474;52.236;5.114;2023-07-02T01:36:51;100720.84;;;12.87;100.00
59170;BME280;52474;52.236;5.114;2023-07-02T01:39:22;100720.09;;;12.77;100.00
59170;BME280;52474;52.236;5.114;2023-07-02T01:41:54;100745.97;;;13.02;100.00
59170;BME280;52474;52.236;5.114;2023-07-02T01:44:27;100736.75;;;12.97;100.00
59170;BME280;52474;52.236;5.114;2023-07-02T01:46:56;100716.97;;;12.81;100.00
59170;BME280;52474;52.236;5.114;2023-07-02T01:49:26;100757.19;;;12.96;100.00
59170;BME280;52474;52.236;5.114;2023-07-02T01:51:57;100748.63;;;12.75;100.00
59170;BME280;52474;52.236;5.114;2023-07-02T01:54:28;100743.78;;;12.70;100.00
59170;BME280;52474;52.236;5.114;2023-07-02T01:56:58;100746.25;;;12.72;100.00
59170;BME280;52474;52.236;5.114;2023-07-02T01:59:30;100752.66;;;12.79;100.00
59170;BME280;52474;52.236;5.114;2023-07-02T02:01:59;100757.25;;;12.86;100.00
59170;BME280;52474;52.236;5.114;2023-07-02T02:04:28;100717.91;;;12.62;100.00
59170;BME280;52474;52.236;5.114;2023-07-02T02:06:58;100726.88;;;12.61;100.00
59170;BME280;52474;52.236;5.114;2023-07-02T02:09:27;100701.97;;;12.35;100.00
59170;BME280;52474;52.236;5.114;2023-07-02T02:11:58;100758.84;;;12.70;100.00
59170;BME280;52474;52.236;5.114;2023-07-02T02:14:28;100726.25;;;12.40;100.00
59170;BME280;52474;52.236;5.114;2023-07-02T02:16:59;100772.78;;;12.54;100.00
59170;BME280;52474;52.236;5.114;2023-07-02T02:19:28;100767.38;;;12.45;100.00
59170;BME280;52474;52.236;5.114;2023-07-02T02:21:59;100724.25;;;12.14;100.00
59170;BME280;52474;52.236;5.114;2023-07-02T02:24:30;100767.66;;;12.33;100.00
59170;BME280;52474;52.236;5.114;2023-07-02T02:26:59;100762.66;;;12.30;100.00
59170;BME280;52474;52.236;5.114;2023-07-02T02:29:31;100733.78;;;12.07;100.00
59170;BME280;52474;52.236;5.114;2023-07-02T02:32:02;100735.03;;;12.03;100.00
59170;BME280;52474;52.236;5.114;2023-07-02T02:34:32;100725.56;;;11.91;100.00
59170;BME280;52474;52.236;5.114;2023-07-02T02:37:03;100735.19;;;12.01;100.00
59170;BME280;52474;52.236;5.114;2023-07-02T02:39:33;100766.31;;;12.19;100.00
59170;BME280;52474;52.236;5.114;2023-07-02T02:42:04;100764.91;;;12.15;100.00
59170;BME280;52474;52.236;5.114;2023-07-02T02:44:33;100727.25;;;12.01;100.00
59170;BME280;52474;52.236;5.114;2023-07-02T02:47:03;100741.03;;;12.05;100.00
59170;BME280;52474;52.236;5.114;2023-07-02T02:49:32;100746.63;;;12.12;100.00
59170;BME280;52474;52.236;5.114;2023-07-02T02:52:01;100790.00;;;12.40;100.00
59170;BME280;52474;52.236;5.114;2023-07-02T02:54:30;100797.81;;;12.51;100.00
59170;BME280;52474;52.236;5.114;2023-07-02T02:56:59;100794.88;;;12.54;100.00
59170;BME280;52474;52.236;5.114;2023-07-02T02:59:30;100790.78;;;12.60;100.00
59170;BME280;52474;52.236;5.114;2023-07-02T03:02:00;100790.16;;;12.48;100.00
59170;BME280;52474;52.236;5.114;2023-07-02T03:04:35;100769.47;;;12.32;100.00
59170;BME280;52474;52.236;5.114;2023-07-02T03:07:10;100765.31;;;12.20;100.00
59170;BME280;52474;52.236;5.114;2023-07-02T03:09:41;100790.63;;;12.24;100.00
59170;BME280;52474;52.236;5.114;2023-07-02T03:12:10;100770.81;;;12.09;100.00
59170;BME280;52474;52.236;5.114;2023-07-02T03:14:43;100760.72;;;12.12;100.00
59170;BME280;52474;52.236;5.114;2023-07-02T03:17:16;100769.38;;;12.24;100.00
59170;BME280;52474;52.236;5.114;2023-07-02T03:19:49;100809.13;;;12.53;100.00
59170;BME280;52474;52.236;5.114;2023-07-02T03:22:20;100806.56;;;12.71;100.00
59170;BME280;52474;52.236;5.114;2023-07-02T03:24:48;100812.19;;;12.58;100.00
59170;BME280;52474;52.236;5.114;2023-07-02T03:27:20;100770.72;;;12.38;100.00
59170;BME280;52474;52.236;5.114;2023-07-02T03:29:52;100775.88;;;12.49;100.00
59170;BME280;52474;52.236;5.114;2023-07-02T03:32:24;100806.13;;;12.76;100.00
59170;BME280;52474;52.236;5.114;2023-07-02T03:34:55;100768.25;;;12.64;100.00
59170;BME280;52474;52.236;5.114;2023-07-02T03:37:26;100760.63;;;12.51;100.00
59170;BME280;52474;52.236;5.114;2023-07-02T03:39:55;100799.06;;;12.84;100.00
59170;BME280;52474;52.236;5.114;2023-07-02T03:42:27;100801.06;;;12.82;100.00
59170;BME280;52474;52.236;5.114;2023-07-02T03:44:58;100806.66;;;12.79;100.00
59170;BME280;52474;52.236;5.114;2023-07-02T03:47:30;100766.47;;;12.55;100.00
59170;BME280;52474;52.236;5.114;2023-07-02T03:50:00;100807.50;;;12.80;100.00
59170;BME280;52474;52.236;5.114;2023-07-02T03:52:30;100806.66;;;12.79;100.00
59170;BME280;52474;52.236;5.114;2023-07-02T03:55:01;100813.41;;;12.74;100.00
59170;BME280;52474;52.236;5.114;2023-07-02T03:57:31;100783.38;;;12.63;100.00
59170;BME280;52474;52.236;5.114;2023-07-02T04:00:02;100779.88;;;12.63;100.00
59170;BME280;52474;52.236;5.114;2023-07-02T04:02:41;100800.09;;;12.74;100.00
59170;BME280;52474;52.236;5.114;2023-07-02T04:05:12;100813.00;;;12.96;100.00
59170;BME280;52474;52.236;5.114;2023-07-02T04:07:44;100800.19;;;12.82;100.00
59170;BME280;52474;52.236;5.114;2023-07-02T04:10:15;100801.34;;;12.79;100.00
59170;BME280;52474;52.236;5.114;2023-07-02T04:12:46;100808.72;;;12.85;100.00
59170;BME280;52474;52.236;5.114;2023-07-02T04:15:15;100838.59;;;13.07;100.00
59170;BME280;52474;52.236;5.114;2023-07-02T04:17:47;100803.91;;;12.99;100.00
59170;BME280;52474;52.236;5.114;2023-07-02T04:20:19;100832.72;;;13.31;100.00
59170;BME280;52474;52.236;5.114;2023-07-02T04:22:50;100845.75;;;13.34;100.00
59170;BME280;52474;52.236;5.114;2023-07-02T04:25:23;100832.72;;;13.31;100.00
59170;BME280;52474;52.236;5.114;2023-07-02T04:27:53;100843.50;;;13.75;100.00
59170;BME280;52474;52.236;5.114;2023-07-02T04:30:26;100845.47;;;13.73;100.00
59170;BME280;52474;52.236;5.114;2023-07-02T04:32:57;100811.38;;;13.41;100.00
59170;BME280;52474;52.236;5.114;2023-07-02T04:35:27;100807.13;;;13.30;100.00
59170;BME280;52474;52.236;5.114;2023-07-02T04:37:56;100845.03;;;13.60;100.00
59170;BME280;52474;52.236;5.114;2023-07-02T04:40:26;100831.63;;;13.51;100.00
59170;BME280;52474;52.236;5.114;2023-07-02T04:42:56;100848.75;;;13.67;100.00
59170;BME280;52474;52.236;5.114;2023-07-02T04:45:30;100822.34;;;13.56;100.00
59170;BME280;52474;52.236;5.114;2023-07-02T04:48:04;100813.31;;;13.66;100.00
59170;BME280;52474;52.236;5.114;2023-07-02T04:50:33;100827.31;;;13.68;100.00
59170;BME280;52474;52.236;5.114;2023-07-02T04:53:02;100850.28;;;13.87;100.00
59170;BME280;52474;52.236;5.114;2023-07-02T04:55:32;100847.38;;;13.99;100.00
59170;BME280;52474;52.236;5.114;2023-07-02T04:58:00;100857.28;;;14.06;100.00
59170;BME280;52474;52.236;5.114;2023-07-02T05:00:30;100852.25;;;14.03;100.00
59170;BME280;52474;52.236;5.114;2023-07-02T05:03:00;100856.44;;;14.06;100.00
59170;BME280;52474;52.236;5.114;2023-07-02T05:05:30;100843.59;;;14.01;100.00
59170;BME280;52474;52.236;5.114;2023-07-02T05:08:00;100846.63;;;14.06;100.00
59170;BME280;52474;52.236;5.114;2023-07-02T05:10:30;100830.28;;;14.01;100.00
59170;BME280;52474;52.236;5.114;2023-07-02T05:12:59;100840.53;;;14.14;100.00
59170;BME280;52474;52.236;5.114;2023-07-02T05:15:28;100839.75;;;14.22;100.00
59170;BME280;52474;52.236;5.114;2023-07-02T05:17:57;100844.56;;;14.44;100.00
59170;BME280;52474;52.236;5.114;2023-07-02T05:20:27;100825.34;;;14.32;100.00
59170;BME280;52474;52.236;5.114;2023-07-02T05:22:57;100879.72;;;14.66;100.00
59170;BME280;52474;52.236;5.114;2023-07-02T05:25:28;100874.25;;;14.67;100.00
59170;BME280;52474;52.236;5.114;2023-07-02T05:27:58;100836.66;;;14.52;100.00
59170;BME280;52474;52.236;5.114;2023-07-02T05:30:30;100841.38;;;14.58;100.00
59170;BME280;52474;52.236;5.114;2023-07-02T05:33:00;100840.56;;;14.66;100.00
59170;BME280;52474;52.236;5.114;2023-07-02T05:35:28;100845.28;;;14.72;100.00
59170;BME280;52474;52.236;5.114;2023-07-02T05:37:57;100862.97;;;14.81;100.00
59170;BME280;52474;52.236;5.114;2023-07-02T05:40:26;100854.63;;;14.76;100.00
59170;BME280;52474;52.236;5.114;2023-07-02T05:42:56;100848.53;;;14.84;100.00
59170;BME280;52474;52.236;5.114;2023-07-02T05:45:25;100851.34;;;14.82;100.00
59170;BME280;52474;52.236;5.114;2023-07-02T05:47:55;100850.53;;;14.90;100.00
59170;BME280;52474;52.236;5.114;2023-07-02T05:50:24;100888.03;;;15.23;100.00
59170;BME280;52474;52.236;5.114;2023-07-02T05:52:53;100867.66;;;15.14;100.00
59170;BME280;52474;52.236;5.114;2023-07-02T05:55:22;100853.13;;;15.08;100.00
59170;BME280;52474;52.236;5.114;2023-07-02T05:57:52;100853.34;;;15.23;100.00
59170;BME280;52474;52.236;5.114;2023-07-02T06:00:25;100886.47;;;15.55;100.00
59170;BME280;52474;52.236;5.114;2023-07-02T06:02:54;100877.16;;;15.59;100.00
59170;BME280;52474;52.236;5.114;2023-07-02T06:05:21;100891.25;;;16.02;100.00
59170;BME280;52474;52.236;5.114;2023-07-02T06:07:51;100918.81;;;15.86;100.00
59170;BME280;52474;52.236;5.114;2023-07-02T06:10:23;100913.34;;;16.20;100.00
59170;BME280;52474;52.236;5.114;2023-07-02T06:12:52;100887.44;;;16.29;100.00
59170;BME280;52474;52.236;5.114;2023-07-02T06:15:22;100872.31;;;18.18;100.00
59170;BME280;52474;52.236;5.114;2023-07-02T06:17:52;100879.81;;;21.62;100.00
59170;BME280;52474;52.236;5.114;2023-07-02T06:20:21;100880.50;;;23.04;100.00
59170;BME280;52474;52.236;5.114;2023-07-02T06:22:50;100904.31;;;23.78;100.00
59170;BME280;52474;52.236;5.114;2023-07-02T06:25:19;100904.94;;;24.12;100.00
59170;BME280;52474;52.236;5.114;2023-07-02T06:27:47;100902.28;;;24.06;100.00
59170;BME280;52474;52.236;5.114;2023-07-02T06:30:14;100901.91;;;24.59;100.00
59170;BME280;52474;52.236;5.114;2023-07-02T06:32:44;100913.63;;;21.23;100.00
59170;BME280;52474;52.236;5.114;2023-07-02T06:35:11;100906.63;;;24.63;100.00
59170;BME280;52474;52.236;5.114;2023-07-02T06:37:40;100897.63;;;24.88;100.00
59170;BME280;52474;52.236;5.114;2023-07-02T06:40:07;100877.00;;;24.43;100.00
59170;BME280;52474;52.236;5.114;2023-07-02T06:42:36;100921.34;;;23.86;100.00
59170;BME280;52474;52.236;5.114;2023-07-02T06:45:05;100895.84;;;25.56;100.00
59170;BME280;52474;52.236;5.114;2023-07-02T06:47:34;100895.63;;;26.41;100.00
59170;BME280;52474;52.236;5.114;2023-07-02T06:50:02;100930.59;;;28.01;100.00
59170;BME280;52474;52.236;5.114;2023-07-02T06:52:30;100928.81;;;28.40;100.00
59170;BME280;52474;52.236;5.114;2023-07-02T06:54:58;100926.53;;;27.87;100.00
59170;BME280;52474;52.236;5.114;2023-07-02T06:57:26;100905.03;;;24.99;100.00
59170;BME280;52474;52.236;5.114;2023-07-02T06:59:59;100921.75;;;26.00;100.00
59170;BME280;52474;52.236;5.114;2023-07-02T07:02:30;100937.50;;;21.33;100.00
59170;BME280;52474;52.236;5.114;2023-07-02T07:04:57;100935.03;;;21.93;100.00
59170;BME280;52474;52.236;5.114;2023-07-02T07:07:25;100956.44;;;22.07;100.00
59170;BME280;52474;52.236;5.114;2023-07-02T07:09:58;100950.47;;;20.38;100.00
59170;BME280;52474;52.236;5.114;2023-07-02T07:12:26;100941.69;;;20.08;100.00
59170;BME280;52474;52.236;5.114;2023-07-02T07:14:54;100955.84;;;21.16;100.00
59170;BME280;52474;52.236;5.114;2023-07-02T07:17:22;100958.31;;;25.31;100.00
59170;BME280;52474;52.236;5.114;2023-07-02T07:19:50;100970.63;;;27.48;100.00
59170;BME280;52474;52.236;5.114;2023-07-02T07:22:17;100977.09;;;27.99;100.00
59170;BME280;52474;52.236;5.114;2023-07-02T07:24:47;100975.97;;;29.30;100.00
59170;BME280;52474;52.236;5.114;2023-07-02T07:27:15;100970.41;;;29.64;100.00
59170;BME280;52474;52.236;5.114;2023-07-02T07:29:42;100979.50;;;26.19;100.00
59170;BME280;52474;52.236;5.114;2023-07-02T07:32:09;100960.66;;;27.54;100.00
59170;BME280;52474;52.236;5.114;2023-07-02T07:34:35;100977.47;;;30.36;100.00
59170;BME280;52474;52.236;5.114;2023-07-02T07:37:03;100987.94;;;24.18;100.00
59170;BME280;52474;52.236;5.114;2023-07-02T07:39:30;100987.59;;;27.79;100.00
59170;BME280;52474;52.236;5.114;2023-07-02T07:42:01;100993.56;;;26.28;100.00
59170;BME280;52474;52.236;5.114;2023-07-02T07:44:28;100993.66;;;21.71;100.00
59170;BME280;52474;52.236;5.114;2023-07-02T07:46:58;100955.78;;;20.53;100.00
59170;BME280;52474;52.236;5.114;2023-07-02T07:49:26;100989.84;;;23.60;100.00
59170;BME280;52474;52.236;5.114;2023-07-02T07:51:53;100967.09;;;27.48;100.00
59170;BME280;52474;52.236;5.114;2023-07-02T07:54:20;100985.25;;;28.28;100.00
59170;BME280;52474;52.236;5.114;2023-07-02T07:56:46;100971.16;;;26.86;100.00
59170;BME280;52474;52.236;5.114;2023-07-02T07:59:13;100967.59;;;27.09;100.00
59170;BME280;52474;52.236;5.114;2023-07-02T08:01:42;100994.75;;;22.91;100.00
59170;BME280;52474;52.236;5.114;2023-07-02T08:04:09;100994.31;;;24.31;100.00
59170;BME280;52474;52.236;5.114;2023-07-02T08:06:37;100969.00;;;27.47;100.00
59170;BME280;52474;52.236;5.114;2023-07-02T08:09:05;100981.97;;;30.53;100.00
59170;BME280;52474;52.236;5.114;2023-07-02T08:11:33;100991.34;;;30.30;100.00
59170;BME280;52474;52.236;5.114;2023-07-02T08:14:00;100986.72;;;30.63;100.00
59170;BME280;52474;52.236;5.114;2023-07-02T08:16:28;100969.25;;;30.36;100.00
59170;BME280;52474;52.236;5.114;2023-07-02T08:19:05;100958.03;;;28.45;100.00
59170;BME280;52474;52.236;5.114;2023-07-02T08:21:31;100947.13;;;26.06;100.00
59170;BME280;52474;52.236;5.114;2023-07-02T08:23:58;100989.34;;;26.74;100.00
59170;BME280;52474;52.236;5.114;2023-07-02T08:26:26;100978.34;;;27.28;100.00
59170;BME280;52474;52.236;5.114;2023-07-02T08:28:54;100999.72;;;27.48;100.00
59170;BME280;52474;52.236;5.114;2023-07-02T08:31:24;100987.59;;;23.56;100.00
59170;BME280;52474;52.236;5.114;2023-07-02T08:33:52;101010.69;;;21.71;100.00
59170;BME280;52474;52.236;5.114;2023-07-02T08:36:21;100979.41;;;22.91;100.00
59170;BME280;52474;52.236;5.114;2023-07-02T08:38:49;101001.91;;;28.77;100.00
59170;BME280;52474;52.236;5.114;2023-07-02T08:41:20;101013.59;;;28.15;100.00
59170;BME280;52474;52.236;5.114;2023-07-02T08:43:50;100970.59;;;30.07;100.00
59170;BME280;52474;52.236;5.114;2023-07-02T08:46:18;101023.84;;;30.91;100.00
59170;BME280;52474;52.236;5.114;2023-07-02T08:48:47;101023.28;;;31.84;100.00
59170;BME280;52474;52.236;5.114;2023-07-02T08:51:17;101020.72;;;32.50;100.00
59170;BME280;52474;52.236;5.114;2023-07-02T08:53:49;101014.19;;;28.97;100.00
59170;BME280;52474;52.236;5.114;2023-07-02T08:56:16;101028.47;;;27.32;100.00
59170;BME280;52474;52.236;5.114;2023-07-02T08:58:46;101004.72;;;32.01;100.00
59170;BME280;52474;52.236;5.114;2023-07-02T09:01:14;101031.19;;;27.44;100.00
59170;BME280;52474;52.236;5.114;2023-07-02T09:03:49;101002.91;;;26.62;100.00
59170;BME280;52474;52.236;5.114;2023-07-02T09:06:18;100983.25;;;30.13;100.00
59170;BME280;52474;52.236;5.114;2023-07-02T09:08:46;101028.78;;;30.62;100.00
59170;BME280;52474;52.236;5.114;2023-07-02T09:11:23;101033.31;;;27.18;100.00
59170;BME280;52474;52.236;5.114;2023-07-02T09:13:53;101009.84;;;29.13;100.00
59170;BME280;52474;52.236;5.114;2023-07-02T09:16:30;101038.16;;;29.67;100.00
59170;BME280;52474;52.236;5.114;2023-07-02T09:19:08;101042.22;;;26.29;100.00
59170;BME280;52474;52.236;5.114;2023-07-02T09:24:19;101036.69;;;28.70;100.00
59170;BME280;52474;52.236;5.114;2023-07-02T09:26:48;101033.00;;;31.49;100.00
59170;BME280;52474;52.236;5.114;2023-07-02T09:31:50;101028.38;;;30.21;100.00
59170;BME280;52474;52.236;5.114;2023-07-02T09:34:17;101020.72;;;31.14;100.00
59170;BME280;52474;52.236;5.114;2023-07-02T09:36:44;101021.53;;;32.66;100.00
59170;BME280;52474;52.236;5.114;2023-07-02T09:39:19;101036.97;;;31.84;100.00
59170;BME280;52474;52.236;5.114;2023-07-02T09:41:49;101032.09;;;31.96;100.00
59170;BME280;52474;52.236;5.114;2023-07-02T09:44:19;101021.50;;;32.46;100.00
59170;BME280;52474;52.236;5.114;2023-07-02T09:46:50;101018.50;;;32.32;100.00
59170;BME280;52474;52.236;5.114;2023-07-02T09:49:20;101026.66;;;32.22;100.00
59170;BME280;52474;52.236;5.114;2023-07-02T09:51:46;101024.72;;;27.85;100.00
59170;BME280;52474;52.236;5.114;2023-07-02T09:54:13;101047.56;;;28.87;100.00
59170;BME280;52474;52.236;5.114;2023-07-02T09:56:41;101048.88;;;29.35;100.00
59170;BME280;52474;52.236;5.114;2023-07-02T09:59:08;101036.66;;;31.28;100.00
59170;BME280;52474;52.236;5.114;2023-07-02T10:01:35;101036.66;;;31.28;100.00
59170;BME280;52474;52.236;5.114;2023-07-02T10:04:16;101038.97;;;27.05;100.00
59170;BME280;52474;52.236;5.114;2023-07-02T10:06:49;101048.78;;;27.65;100.00
59170;BME280;52474;52.236;5.114;2023-07-02T10:09:20;101042.59;;;30.77;100.00
59170;BME280;52474;52.236;5.114;2023-07-02T10:11:47;101042.13;;;28.70;100.00
59170;BME280;52474;52.236;5.114;2023-07-02T10:14:14;101064.38;;;24.84;100.00
59170;BME280;52474;52.236;5.114;2023-07-02T10:16:52;101060.34;;;29.54;100.00
59170;BME280;52474;52.236;5.114;2023-07-02T10:19:18;101033.31;;;29.74;100.00
59170;BME280;52474;52.236;5.114;2023-07-02T10:21:45;101053.56;;;27.98;100.00
59170;BME280;52474;52.236;5.114;2023-07-02T10:24:14;101059.53;;;30.47;100.00
59170;BME280;52474;52.236;5.114;2023-07-02T10:26:59;101066.44;;;27.50;100.00
59170;BME280;52474;52.236;5.114;2023-07-02T10:29:27;101070.56;;;27.41;100.00
59170;BME280;52474;52.236;5.114;2023-07-02T10:31:55;101069.69;;;28.28;100.00
59170;BME280;52474;52.236;5.114;2023-07-02T10:34:32;101061.97;;;26.67;100.00
59170;BME280;52474;52.236;5.114;2023-07-02T10:37:00;101072.41;;;23.69;100.00
59170;BME280;52474;52.236;5.114;2023-07-02T10:39:28;101060.44;;;24.55;100.00
59170;BME280;52474;52.236;5.114;2023-07-02T10:42:09;101071.47;;;29.14;100.00
59170;BME280;52474;52.236;5.114;2023-07-02T10:44:50;101076.28;;;28.03;100.00
59170;BME280;52474;52.236;5.114;2023-07-02T10:47:18;101076.16;;;25.46;100.00
59170;BME280;52474;52.236;5.114;2023-07-02T10:49:45;101092.81;;;23.45;100.00
59170;BME280;52474;52.236;5.114;2023-07-02T10:52:12;101060.56;;;25.79;100.00
59170;BME280;52474;52.236;5.114;2023-07-02T10:54:42;101082.72;;;24.50;100.00
59170;BME280;52474;52.236;5.114;2023-07-02T10:57:12;101081.72;;;23.93;100.00
59170;BME280;52474;52.236;5.114;2023-07-02T10:59:40;101072.31;;;25.54;100.00
59170;BME280;52474;52.236;5.114;2023-07-02T11:02:08;101085.19;;;25.40;100.00
59170;BME280;52474;52.236;5.114;2023-07-02T11:04:36;101077.78;;;23.89;100.00
59170;BME280;52474;52.236;5.114;2023-07-02T11:07:04;101077.66;;;23.44;100.00
59170;BME280;52474;52.236;5.114;2023-07-02T11:09:31;101078.47;;;26.53;100.00
59170;BME280;52474;52.236;5.114;2023-07-02T11:12:00;101055.75;;;29.04;100.00
59170;BME280;52474;52.236;5.114;2023-07-02T11:14:34;101078.09;;;29.57;100.00
59170;BME280;52474;52.236;5.114;2023-07-02T11:17:03;101078.84;;;28.51;100.00
59170;BME280;52474;52.236;5.114;2023-07-02T11:19:35;101082.22;;;29.20;100.00
59170;BME280;52474;52.236;5.114;2023-07-02T11:22:02;101076.50;;;25.06;100.00
59170;BME280;52474;52.236;5.114;2023-07-02T11:24:34;101090.69;;;26.44;100.00
59170;BME280;52474;52.236;5.114;2023-07-02T11:27:03;101086.03;;;28.28;100.00
59170;BME280;52474;52.236;5.114;2023-07-02T11:29:30;101070.72;;;29.18;100.00
59170;BME280;52474;52.236;5.114;2023-07-02T11:32:10;101082.06;;;29.66;100.00
59170;BME280;52474;52.236;5.114;2023-07-02T11:34:38;101094.16;;;27.99;100.00
59170;BME280;52474;52.236;5.114;2023-07-02T11:37:06;101096.13;;;26.26;100.00
59170;BME280;52474;52.236;5.114;2023-07-02T11:39:32;101093.00;;;24.73;100.00
59170;BME280;52474;52.236;5.114;2023-07-02T11:41:59;101101.06;;;24.48;100.00
59170;BME280;52474;52.236;5.114;2023-07-02T11:44:27;101091.38;;;27.47;100.00
59170;BME280;52474;52.236;5.114;2023-07-02T11:46:53;101079.66;;;28.51;100.00
59170;BME280;52474;52.236;5.114;2023-07-02T11:49:20;101093.53;;;28.21;100.00
59170;BME280;52474;52.236;5.114;2023-07-02T11:51:46;101096.22;;;27.57;100.00
59170;BME280;52474;52.236;5.114;2023-07-02T11:54:15;101088.34;;;28.36;100.00
59170;BME280;52474;52.236;5.114;2023-07-02T11:56:42;101093.06;;;29.71;100.00
59170;BME280;52474;52.236;5.114;2023-07-02T11:59:09;101084.03;;;29.53;100.00
59170;BME280;52474;52.236;5.114;2023-07-02T12:01:36;101096.41;;;28.02;100.00
59170;BME280;52474;52.236;5.114;2023-07-02T12:04:03;101087.59;;;27.36;100.00
59170;BME280;52474;52.236;5.114;2023-07-02T12:06:29;101100.94;;;27.85;100.00
59170;BME280;52474;52.236;5.114;2023-07-02T12:08:56;101084.28;;;27.58;100.00
59170;BME280;52474;52.236;5.114;2023-07-02T12:11:22;101097.00;;;26.08;100.00
59170;BME280;52474;52.236;5.114;2023-07-02T12:13:49;101105.88;;;28.00;100.00
59170;BME280;52474;52.236;5.114;2023-07-02T12:16:16;101096.31;;;26.12;100.00
59170;BME280;52474;52.236;5.114;2023-07-02T12:18:43;101085.59;;;26.66;100.00
59170;BME280;52474;52.236;5.114;2023-07-02T12:21:09;101097.84;;;27.11;100.00
59170;BME280;52474;52.236;5.114;2023-07-02T12:23:38;101110.88;;;27.56;100.00
59170;BME280;52474;52.236;5.114;2023-07-02T12:26:05;101094.91;;;28.98;100.00
59170;BME280;52474;52.236;5.114;2023-07-02T12:28:32;101118.84;;;28.21;100.00
59170;BME280;52474;52.236;5.114;2023-07-02T12:30:58;101124.97;;;27.53;100.00
59170;BME280;52474;52.236;5.114;2023-07-02T12:33:25;101111.53;;;26.13;100.00
59170;BME280;52474;52.236;5.114;2023-07-02T12:35:52;101120.16;;;26.59;100.00
59170;BME280;52474;52.236;5.114;2023-07-02T12:38:19;101125.81;;;26.58;100.00
59170;BME280;52474;52.236;5.114;2023-07-02T12:40:46;101133.91;;;24.58;100.00
59170;BME280;52474;52.236;5.114;2023-07-02T12:43:15;101121.16;;;26.28;100.00
59170;BME280;52474;52.236;5.114;2023-07-02T12:45:42;101122.66;;;26.42;100.00
59170;BME280;52474;52.236;5.114;2023-07-02T12:48:09;101110.66;;;26.68;100.00
59170;BME280;52474;52.236;5.114;2023-07-02T12:50:38;101114.34;;;28.15;100.00
59170;BME280;52474;52.236;5.114;2023-07-02T12:53:05;101112.34;;;28.11;100.00
59170;BME280;52474;52.236;5.114;2023-07-02T12:55:32;101127.78;;;26.02;100.00
59170;BME280;52474;52.236;5.114;2023-07-02T12:57:59;101116.06;;;26.68;100.00